South Cle Elum, Washington
Current Conditions -  °F | °C
As of 5:53 AM on Friday 31 Oct 2014 (Local Time) from KELN Reporting Station
Light Rain Light Rain  
Wind Chill: 52°   Ceiling: 6500
Heat Index: 52°   Visibility: 7mi
Dew Point: 48°   Wind: 9mph
Humidity: 86%   Direction: 80°E
Pressure: 29.71"   Gusts: NA
Location:  47.19°N, 120.95°W
Report Text: KELN 311253Z AUTO 08008KT 7SM -RA OVC065 11/09 A2971 RMK AO2 SLP061 P0002 T01110089
Loading
Personal Weather Stations






























Interactive Weather Map
Tropical Storm Tracking
New forecast layout! Learn more

10-Day Weather Forecast

Advertisements
Track Severe Weather on mobile